Hiwasse, Arkansas
Current Conditions -  °F | °C
As of 1:55 PM on Thursday 27 Nov 2014 (Local Time) from KVBT Reporting Station
Clear Clear  
Wind Chill: 39°   Ceiling: Unl
Heat Index: 39°   Visibility: 10mi
Dew Point: 23°   Wind: 0mph
Humidity: 52%   Direction: NA
Pressure: 30.46"   Gusts: NA
Location:  36.43°N, 94.33°W
Report Text: KVBT 271955Z AUTO 00000KT 10SM CLR 04/M05 A3046 RMK AO1
Loading
Personal Weather Stations






























Interactive Weather Map New forecast layout! Learn more

10-Day Weather Forecast

Advertisements
Track Severe Weather on mobile